createdAt,value
2023-02-13T00:04:24.849Z,6.00
2023-02-13T00:09:27.405Z,5.20
2023-02-13T00:14:29.908Z,4.47
2023-02-13T00:19:33.044Z,4.87
2023-02-13T00:24:35.614Z,5.37
2023-02-13T00:29:38.095Z,6.27
2023-02-13T00:34:40.725Z,5.63
2023-02-13T00:39:43.344Z,5.20
2023-02-13T00:44:45.860Z,4.73
2023-02-13T00:49:48.518Z,4.90
2023-02-13T00:54:51.096Z,5.23
2023-02-13T00:59:53.648Z,4.97
2023-02-13T01:04:56.236Z,4.77
2023-02-13T01:10:00.209Z,5.33
2023-02-13T01:15:04.312Z,3.80
2023-02-13T01:20:12.827Z,3.83
2023-02-13T01:25:15.371Z,3.80
2023-02-13T01:30:18.690Z,4.37
2023-02-13T01:35:21.259Z,4.37
2023-02-13T01:40:23.865Z,4.47
2023-02-13T01:45:29.460Z,4.20
2023-02-13T01:50:37.650Z,3.80
2023-02-13T01:55:48.393Z,5.23
2023-02-13T02:00:51.083Z,3.47
2023-02-13T02:05:57.213Z,3.83
2023-02-13T02:11:15.637Z,5.23
2023-02-13T02:16:18.275Z,4.50
2023-02-13T02:21:36.935Z,5.10
2023-02-13T02:27:01.125Z,5.20
2023-02-13T02:32:13.405Z,6.40
2023-02-13T02:37:27.727Z,5.33
2023-02-13T02:42:43.077Z,4.77
2023-02-13T02:48:06.761Z,4.50
2023-02-13T02:53:34.771Z,4.07
2023-02-13T02:59:18.564Z,5.33
2023-02-13T03:04:47.213Z,4.60
2023-02-13T03:10:15.528Z,6.10
2023-02-13T03:15:18.090Z,5.70
2023-02-13T03:21:01.489Z,6.23
2023-02-13T03:26:12.461Z,3.57
2023-02-13T03:31:36.885Z,4.30
2023-02-13T03:37:21.062Z,5.40
2023-02-13T03:42:41.577Z,4.80
2023-02-13T03:47:45.337Z,4.60
2023-02-13T03:52:59.189Z,4.30
2023-02-13T03:58:41.791Z,5.10
2023-02-13T04:03:57.014Z,6.10
2023-02-13T04:08:59.595Z,4.80
2023-02-13T04:14:10.958Z,3.90
2023-02-13T04:19:14.007Z,4.77
2023-02-13T04:24:16.451Z,4.23
2023-02-13T04:29:19.498Z,5.70
2023-02-13T04:34:22.477Z,6.07
2023-02-13T04:39:25.011Z,5.67
2023-02-13T04:44:27.567Z,4.37
2023-02-13T04:49:30.219Z,4.27
2023-02-13T04:54:32.691Z,4.20
2023-02-13T04:59:35.299Z,2.87
2023-02-13T05:04:37.867Z,4.10
2023-02-13T05:09:41.621Z,4.90
2023-02-13T05:14:44.480Z,5.40
2023-02-13T05:19:47.144Z,3.87
2023-02-13T05:24:49.892Z,5.00
2023-02-13T05:29:52.526Z,7.03
2023-02-13T05:34:56.387Z,5.97
2023-02-13T05:39:58.888Z,5.53
2023-02-13T05:45:01.411Z,7.93
2023-02-13T05:50:04.102Z,5.17
2023-02-13T05:55:07.133Z,5.53
2023-02-13T06:00:10.237Z,7.60
2023-02-13T06:05:12.673Z,8.00
2023-02-13T06:10:15.283Z,8.90
2023-02-13T06:15:17.914Z,8.60
2023-02-13T06:20:20.439Z,9.47
2023-02-13T06:25:23.721Z,9.27
2023-02-13T06:30:26.293Z,11.10
2023-02-13T06:35:28.833Z,9.27
2023-02-13T06:40:31.435Z,7.83
2023-02-13T06:45:33.942Z,7.07
2023-02-13T06:50:36.611Z,10.17
2023-02-13T06:55:40.023Z,6.80
2023-02-13T07:00:42.615Z,7.10
2023-02-13T07:05:45.522Z,6.03
2023-02-13T07:10:48.469Z,6.47
2023-02-13T07:15:51.086Z,7.30
2023-02-13T07:20:53.633Z,7.07
2023-02-13T07:25:59.901Z,5.70
2023-02-13T07:31:06.418Z,5.23
2023-02-13T07:36:09.174Z,4.67
2023-02-13T07:41:11.688Z,6.23
2023-02-13T07:46:14.211Z,7.13
2023-02-13T07:51:17.063Z,5.87
2023-02-13T07:56:19.601Z,5.60
2023-02-13T08:01:22.604Z,6.63
2023-02-13T08:06:25.477Z,8.93
2023-02-13T08:11:51.167Z,8.97
2023-02-13T08:16:54.795Z,7.37
2023-02-13T08:21:57.867Z,7.63
2023-02-13T08:27:00.492Z,6.20
2023-02-13T08:32:03.152Z,6.33
2023-02-13T08:37:05.706Z,5.73
2023-02-13T08:42:08.318Z,7.13
2023-02-13T08:47:11.128Z,5.30
2023-02-13T08:52:13.670Z,6.63
2023-02-13T08:57:16.223Z,7.43
2023-02-13T09:02:18.878Z,6.17
2023-02-13T09:07:21.450Z,5.37
2023-02-13T09:12:24.009Z,4.63
2023-02-13T09:17:26.716Z,4.07
2023-02-13T09:22:29.363Z,4.83
2023-02-13T09:27:32.300Z,4.57
2023-02-13T09:32:35.831Z,4.00
2023-02-13T09:37:38.489Z,4.00
2023-02-13T09:42:40.955Z,4.33
2023-02-13T09:47:45.122Z,4.23
2023-02-13T09:52:49.522Z,4.50
2023-02-13T09:57:55.248Z,4.60
2023-02-13T10:02:57.771Z,4.80
2023-02-13T10:08:41.560Z,3.53
2023-02-13T10:13:52.754Z,5.37
2023-02-13T10:18:55.313Z,5.60
2023-02-13T10:24:02.927Z,2.50
2023-02-13T10:29:27.077Z,3.93
2023-02-13T10:34:34.214Z,4.90
2023-02-13T10:39:36.932Z,2.10
2023-02-13T10:44:54.428Z,6.20
2023-02-13T10:50:00.044Z,4.73
2023-02-13T10:55:15.388Z,4.07
2023-02-13T11:00:47.006Z,4.77
2023-02-13T11:05:50.724Z,5.43
2023-02-13T11:10:53.688Z,6.87
2023-02-13T11:16:06.540Z,5.90
2023-02-13T11:21:20.387Z,4.07
2023-02-13T11:26:35.482Z,4.97
2023-02-13T11:31:38.356Z,4.73
2023-02-13T11:36:40.855Z,4.73
2023-02-13T11:41:45.998Z,3.57
2023-02-13T11:46:51.430Z,3.87
2023-02-13T11:51:56.643Z,1.80
2023-02-13T11:57:05.057Z,4.90
2023-02-13T12:02:21.181Z,3.37
2023-02-13T12:07:43.235Z,3.20
2023-02-13T12:12:57.555Z,4.90
2023-02-13T12:18:25.417Z,2.97
2023-02-13T12:23:57.046Z,4.07
2023-02-13T12:29:15.504Z,4.97
2023-02-13T12:34:36.763Z,3.13
2023-02-13T12:39:47.670Z,2.07
2023-02-13T12:45:26.087Z,2.47
2023-02-13T12:50:37.455Z,3.17
2023-02-13T12:55:48.814Z,1.90
2023-02-13T13:00:57.662Z,5.67
2023-02-13T13:06:26.423Z,2.40
2023-02-13T13:11:50.775Z,4.50
2023-02-13T13:17:15.003Z,3.37
2023-02-13T13:22:32.169Z,6.00
2023-02-13T13:27:44.363Z,4.03
2023-02-13T13:32:52.183Z,1.50
2023-02-13T13:38:17.506Z,4.43
2023-02-13T13:43:51.891Z,3.90
2023-02-13T13:49:13.219Z,2.00
2023-02-13T13:54:15.756Z,5.07
2023-02-13T13:59:39.178Z,3.60
2023-02-13T14:05:26.581Z,3.90
2023-02-13T14:10:29.112Z,3.20
2023-02-13T14:15:34.944Z,3.07
2023-02-13T14:20:50.609Z,4.80
2023-02-13T14:26:11.606Z,2.63
2023-02-13T14:31:40.170Z,3.17
2023-02-13T14:36:49.784Z,5.13
2023-02-13T14:41:57.392Z,4.73
2023-02-13T14:47:32.324Z,5.67
2023-02-13T14:52:38.784Z,3.70
2023-02-13T14:58:08.810Z,4.17
2023-02-13T15:03:41.115Z,3.30
2023-02-13T15:08:51.216Z,4.57
2023-02-13T15:13:53.710Z,4.57
2023-02-13T15:18:57.542Z,4.60
2023-02-13T15:24:00.146Z,4.30
2023-02-13T15:29:27.789Z,4.13
2023-02-13T15:34:34.433Z,4.60
2023-02-13T15:39:36.964Z,4.67
2023-02-13T15:44:40.659Z,6.63
2023-02-13T15:49:45.651Z,3.03
2023-02-13T15:54:54.115Z,6.50
2023-02-13T15:59:58.804Z,6.10
2023-02-13T16:05:02.550Z,6.10
2023-02-13T16:10:18.723Z,6.17
2023-02-13T16:15:25.581Z,5.97
2023-02-13T16:20:31.908Z,5.97
2023-02-13T16:25:39.674Z,6.07
2023-02-13T16:31:03.130Z,5.33
2023-02-13T16:36:11.786Z,7.77
2023-02-13T16:41:22.237Z,5.77
2023-02-13T16:46:39.615Z,5.17
2023-02-13T16:52:17.604Z,4.17
2023-02-13T16:57:26.077Z,6.03
2023-02-13T17:02:34.673Z,4.97
2023-02-13T17:07:51.182Z,4.87
2023-02-13T17:12:56.325Z,5.53
2023-02-13T17:17:59.949Z,3.77
2023-02-13T17:23:05.685Z,5.63
2023-02-13T17:28:17.480Z,5.93
2023-02-13T17:33:22.064Z,6.10
2023-02-13T17:38:24.613Z,5.37
2023-02-13T17:43:28.054Z,6.53
2023-02-13T17:48:30.557Z,7.53
2023-02-13T17:53:33.644Z,7.93
2023-02-13T17:58:36.072Z,5.50
2023-02-13T18:03:39.732Z,6.87
2023-02-13T18:08:42.356Z,7.47
2023-02-13T18:13:48.098Z,5.33
2023-02-13T18:18:50.981Z,5.80
2023-02-13T18:23:53.742Z,4.87
2023-02-13T18:28:56.411Z,7.67
2023-02-13T18:33:59.151Z,7.73
2023-02-13T18:39:01.743Z,6.53
2023-02-13T18:44:04.413Z,9.27
2023-02-13T18:49:07.012Z,6.80
2023-02-13T18:54:09.664Z,6.30
2023-02-13T18:59:12.123Z,5.37
2023-02-13T19:04:15.110Z,4.73
2023-02-13T19:09:18.027Z,4.97
2023-02-13T19:14:21.030Z,5.57
2023-02-13T19:19:24.271Z,5.63
2023-02-13T19:24:26.742Z,5.83
2023-02-13T19:29:29.344Z,6.97
2023-02-13T19:34:32.076Z,4.57
2023-02-13T19:39:34.700Z,5.80
2023-02-13T19:44:37.204Z,5.27
2023-02-13T19:49:39.790Z,5.33
2023-02-13T19:54:42.271Z,5.10
2023-02-13T19:59:44.781Z,4.20
2023-02-13T20:04:49.282Z,5.07
2023-02-13T23:36:59.027Z,5.30
2023-02-13T23:42:01.493Z,6.13
2023-02-13T23:47:04.039Z,5.40
2023-02-13T23:52:06.797Z,5.43
2023-02-13T23:57:10.704Z,6.73
